ITY0275 HECA-LGMK
Flight info
| Callsign | ITY0275 |
|---|---|
| Flight time | 1h 27m |
| Altitude | 36000 |
| Route | HECA/05C CVO L617 NOZ L551 ANTAR DCT KPC UN137 PEROK |
| Aircraft | A320/M-SDE3FGHIRWY/LB1 |
Departure
| Time | 2026-04-28 12:51 |
|---|---|
| Airport | Cairo International Airport (HECA) |
Arrival
| Time | 2026-04-28 14:18 |
|---|---|
| Airport | Mykonos Island National Airport (LGMK) |
| Time | Latitude | Longitude | Altitude | Speed | Heading |
|---|---|---|---|---|---|
| 2026-04-28 12:33 | 30.11068 | 31.40321 | 374 ft | 0 kts | 17° |
| 2026-04-28 12:43 | 30.11065 | 31.40320 | 374 ft | 3 kts | 17° |
| 2026-04-28 12:44 | 30.11039 | 31.40311 | 374 ft | 4 kts | 20° |
| 2026-04-28 12:44 | 30.11014 | 31.40299 | 374 ft | 4 kts | 26° |
| 2026-04-28 12:44 | 30.10991 | 31.40283 | 374 ft | 4 kts | 42° |
| 2026-04-28 12:44 | 30.10978 | 31.40262 | 374 ft | 4 kts | 97° |
| 2026-04-28 12:45 | 30.10979 | 31.40252 | 374 ft | 0 kts | 106° |
| 2026-04-28 12:46 | 30.10977 | 31.40259 | 374 ft | 4 kts | 106° |
| 2026-04-28 12:47 | 30.10958 | 31.40337 | 374 ft | 16 kts | 106° |
| 2026-04-28 12:47 | 30.10890 | 31.40461 | 374 ft | 21 kts | 175° |
| 2026-04-28 12:47 | 30.10774 | 31.40342 | 374 ft | 25 kts | 230° |
| 2026-04-28 12:47 | 30.10656 | 31.40184 | 374 ft | 28 kts | 229° |
| 2026-04-28 12:48 | 30.10518 | 31.40001 | 374 ft | 32 kts | 230° |
| 2026-04-28 12:48 | 30.10395 | 31.39837 | 374 ft | 25 kts | 229° |
| 2026-04-28 12:48 | 30.10268 | 31.39670 | 374 ft | 25 kts | 227° |
| 2026-04-28 12:48 | 30.10134 | 31.39586 | 374 ft | 24 kts | 150° |
| 2026-04-28 12:49 | 30.10007 | 31.39730 | 374 ft | 27 kts | 107° |
| 2026-04-28 12:49 | 30.09995 | 31.39842 | 373 ft | 15 kts | 86° |
| 2026-04-28 12:49 | 30.10006 | 31.39873 | 372 ft | 0 kts | 56° |
| 2026-04-28 12:50 | 30.10068 | 31.39965 | 370 ft | 51 kts | 49° |
| 2026-04-28 12:50 | 30.10468 | 31.40490 | 378 ft | 120 kts | 49° |
| 2026-04-28 12:51 | 30.11149 | 31.41372 | 457 ft | 164 kts | 43° |
| 2026-04-28 12:51 | 30.11894 | 31.42331 | 1156 ft | 159 kts | 44° |
| 2026-04-28 12:51 | 30.12654 | 31.43285 | 1752 ft | 168 kts | 41° |
| 2026-04-28 12:51 | 30.13492 | 31.44348 | 2122 ft | 191 kts | 47° |
| 2026-04-28 12:52 | 30.14404 | 31.45591 | 2479 ft | 213 kts | 36° |
| 2026-04-28 12:52 | 30.15795 | 31.46308 | 2884 ft | 233 kts | 5° |
| 2026-04-28 12:52 | 30.17444 | 31.46007 | 3500 ft | 250 kts | 334° |
| 2026-04-28 12:52 | 30.18781 | 31.44705 | 4418 ft | 258 kts | 306° |
| 2026-04-28 12:53 | 30.19611 | 31.42846 | 5431 ft | 262 kts | 296° |
| 2026-04-28 12:53 | 30.20340 | 31.40895 | 6379 ft | 267 kts | 295° |
| 2026-04-28 12:53 | 30.21065 | 31.38913 | 7350 ft | 269 kts | 295° |
| 2026-04-28 12:53 | 30.21810 | 31.36905 | 8260 ft | 273 kts | 295° |
| 2026-04-28 12:54 | 30.22561 | 31.34876 | 9195 ft | 277 kts | 295° |
| 2026-04-28 12:54 | 30.23337 | 31.32813 | 10052 ft | 282 kts | 295° |
| 2026-04-28 12:54 | 30.24160 | 31.30658 | 10459 ft | 304 kts | 295° |
| 2026-04-28 12:54 | 30.25058 | 31.28337 | 10746 ft | 328 kts | 295° |
| 2026-04-28 12:55 | 30.26002 | 31.25918 | 10969 ft | 337 kts | 295° |
| 2026-04-28 12:55 | 30.27040 | 31.23494 | 11037 ft | 340 kts | 304° |
| 2026-04-28 12:55 | 30.28626 | 31.21454 | 11832 ft | 343 kts | 315° |
| 2026-04-28 12:55 | 30.30335 | 31.19521 | 12679 ft | 345 kts | 315° |
| 2026-04-28 12:56 | 30.32068 | 31.17565 | 13432 ft | 351 kts | 314° |
| 2026-04-28 12:56 | 30.33829 | 31.15581 | 14137 ft | 355 kts | 314° |
| 2026-04-28 12:56 | 30.35612 | 31.13576 | 14836 ft | 358 kts | 314° |
| 2026-04-28 12:56 | 30.37404 | 31.11562 | 15564 ft | 360 kts | 314° |
| 2026-04-28 12:57 | 30.39206 | 31.09538 | 16293 ft | 362 kts | 314° |
| 2026-04-28 12:57 | 30.41016 | 31.07506 | 17029 ft | 363 kts | 314° |
| 2026-04-28 12:57 | 30.42838 | 31.05464 | 17755 ft | 365 kts | 314° |
| 2026-04-28 12:57 | 30.44671 | 31.03412 | 18449 ft | 367 kts | 314° |
| 2026-04-28 12:58 | 30.46509 | 31.01349 | 19059 ft | 370 kts | 314° |
| 2026-04-28 12:58 | 30.48363 | 30.99267 | 19669 ft | 372 kts | 313° |
| 2026-04-28 12:58 | 30.50232 | 30.97166 | 20270 ft | 375 kts | 313° |
| 2026-04-28 12:58 | 30.52095 | 30.95067 | 20878 ft | 378 kts | 313° |
| 2026-04-28 12:59 | 30.53985 | 30.92935 | 21475 ft | 380 kts | 313° |
| 2026-04-28 12:59 | 30.55887 | 30.90786 | 22058 ft | 383 kts | 313° |
| 2026-04-28 12:59 | 30.57803 | 30.88621 | 22619 ft | 386 kts | 313° |
| 2026-04-28 12:59 | 30.59732 | 30.86436 | 23165 ft | 388 kts | 313° |
| 2026-04-28 13:00 | 30.61673 | 30.84240 | 23674 ft | 391 kts | 313° |
| 2026-04-28 13:00 | 30.63631 | 30.82026 | 24104 ft | 393 kts | 313° |
| 2026-04-28 13:00 | 30.65596 | 30.79800 | 24553 ft | 395 kts | 313° |
| 2026-04-28 13:00 | 30.67571 | 30.77567 | 24982 ft | 397 kts | 313° |
| 2026-04-28 13:01 | 30.69556 | 30.75327 | 25398 ft | 399 kts | 313° |
| 2026-04-28 13:01 | 30.71551 | 30.73073 | 25811 ft | 401 kts | 313° |
| 2026-04-28 13:01 | 30.73557 | 30.70805 | 26212 ft | 403 kts | 313° |
| 2026-04-28 13:01 | 30.75569 | 30.68527 | 26608 ft | 405 kts | 313° |
| 2026-04-28 13:02 | 30.77597 | 30.66228 | 26999 ft | 407 kts | 313° |
| 2026-04-28 13:02 | 30.79622 | 30.63924 | 27386 ft | 409 kts | 313° |
| 2026-04-28 13:02 | 30.81632 | 30.61633 | 27766 ft | 411 kts | 313° |
| 2026-04-28 13:02 | 30.83705 | 30.59268 | 28149 ft | 413 kts | 313° |
| 2026-04-28 13:03 | 30.85734 | 30.56956 | 28514 ft | 415 kts | 313° |
| 2026-04-28 13:03 | 30.87803 | 30.54608 | 28851 ft | 416 kts | 313° |
| 2026-04-28 13:03 | 30.89883 | 30.52247 | 29195 ft | 418 kts | 313° |
| 2026-04-28 13:03 | 30.91966 | 30.49877 | 29509 ft | 420 kts | 313° |
| 2026-04-28 13:04 | 30.94062 | 30.47489 | 29810 ft | 422 kts | 313° |
| 2026-04-28 13:04 | 30.96159 | 30.45092 | 30100 ft | 423 kts | 313° |
| 2026-04-28 13:04 | 30.98266 | 30.42682 | 30348 ft | 425 kts | 313° |
| 2026-04-28 13:04 | 31.00381 | 30.40264 | 30567 ft | 426 kts | 313° |
| 2026-04-28 13:05 | 31.02494 | 30.37850 | 30890 ft | 424 kts | 312° |
| 2026-04-28 13:05 | 31.04596 | 30.35448 | 31236 ft | 422 kts | 312° |
| 2026-04-28 13:05 | 31.06679 | 30.33043 | 31563 ft | 420 kts | 310° |
| 2026-04-28 13:05 | 31.08480 | 30.30398 | 31897 ft | 415 kts | 301° |
| 2026-04-28 13:06 | 31.09851 | 30.27459 | 32237 ft | 411 kts | 292° |
| 2026-04-28 13:06 | 31.10805 | 30.24334 | 32565 ft | 408 kts | 287° |
| 2026-04-28 13:06 | 31.11657 | 30.21180 | 32904 ft | 407 kts | 287° |
| 2026-04-28 13:06 | 31.12507 | 30.18044 | 33248 ft | 405 kts | 287° |
| 2026-04-28 13:07 | 31.13363 | 30.14911 | 33593 ft | 403 kts | 287° |
| 2026-04-28 13:07 | 31.14216 | 30.11793 | 33948 ft | 402 kts | 287° |
| 2026-04-28 13:07 | 31.15176 | 30.08745 | 34276 ft | 401 kts | 295° |
| 2026-04-28 13:07 | 31.16773 | 30.06068 | 34547 ft | 406 kts | 310° |
| 2026-04-28 13:08 | 31.19001 | 30.04011 | 34808 ft | 413 kts | 322° |
| 2026-04-28 13:08 | 31.21432 | 30.02210 | 35048 ft | 413 kts | 322° |
| 2026-04-28 13:08 | 31.23852 | 30.00435 | 35301 ft | 414 kts | 322° |
| 2026-04-28 13:08 | 31.26302 | 29.98647 | 35541 ft | 414 kts | 322° |
| 2026-04-28 13:09 | 31.28744 | 29.96867 | 35771 ft | 414 kts | 322° |
| 2026-04-28 13:09 | 31.31183 | 29.95087 | 35974 ft | 414 kts | 322° |
| 2026-04-28 13:09 | 31.33600 | 29.93317 | 36043 ft | 417 kts | 322° |
| 2026-04-28 13:10 | 31.38557 | 29.89667 | 36050 ft | 425 kts | 322° |
| 2026-04-28 13:10 | 31.43583 | 29.85944 | 36047 ft | 428 kts | 322° |
| 2026-04-28 13:11 | 31.48620 | 29.82217 | 36059 ft | 428 kts | 322° |
| 2026-04-28 13:11 | 31.53664 | 29.78493 | 36042 ft | 428 kts | 322° |
| 2026-04-28 13:12 | 31.58688 | 29.74762 | 36037 ft | 428 kts | 322° |
| 2026-04-28 13:12 | 31.63726 | 29.71028 | 36041 ft | 429 kts | 322° |
| 2026-04-28 13:13 | 31.68736 | 29.67308 | 36044 ft | 429 kts | 322° |
| 2026-04-28 13:13 | 31.73781 | 29.63555 | 36048 ft | 429 kts | 322° |
| 2026-04-28 13:14 | 31.78834 | 29.59818 | 36047 ft | 431 kts | 325° |
| 2026-04-28 13:14 | 31.84420 | 29.57030 | 36070 ft | 438 kts | 332° |
| 2026-04-28 13:15 | 31.90092 | 29.54390 | 36061 ft | 438 kts | 332° |
| 2026-04-28 13:15 | 31.95766 | 29.51745 | 36056 ft | 438 kts | 332° |
| 2026-04-28 13:16 | 32.01438 | 29.49100 | 36052 ft | 438 kts | 332° |
| 2026-04-28 13:16 | 32.07107 | 29.46456 | 36057 ft | 438 kts | 332° |
| 2026-04-28 13:17 | 32.12773 | 29.43802 | 36060 ft | 439 kts | 332° |
| 2026-04-28 13:17 | 32.18389 | 29.41010 | 36054 ft | 436 kts | 329° |
| 2026-04-28 13:18 | 32.23861 | 29.38011 | 36052 ft | 437 kts | 329° |
| 2026-04-28 13:18 | 32.29153 | 29.34585 | 36052 ft | 433 kts | 324° |
| 2026-04-28 13:19 | 32.34324 | 29.30942 | 36049 ft | 432 kts | 323° |
| 2026-04-28 13:19 | 32.39478 | 29.27269 | 36049 ft | 433 kts | 323° |
| 2026-04-28 13:20 | 32.44650 | 29.23616 | 36054 ft | 433 kts | 324° |
| 2026-04-28 13:20 | 32.49824 | 29.19981 | 36051 ft | 433 kts | 324° |
| 2026-04-28 13:21 | 32.54998 | 29.16344 | 36055 ft | 432 kts | 324° |
| 2026-04-28 13:21 | 32.60165 | 29.12700 | 36051 ft | 432 kts | 324° |
| 2026-04-28 13:22 | 32.65326 | 29.09047 | 36067 ft | 432 kts | 324° |
| 2026-04-28 13:22 | 32.70496 | 29.05380 | 36059 ft | 433 kts | 324° |
| 2026-04-28 13:23 | 32.75665 | 29.01716 | 36052 ft | 433 kts | 324° |
| 2026-04-28 13:23 | 32.80837 | 28.98048 | 36038 ft | 433 kts | 324° |
| 2026-04-28 13:24 | 32.86011 | 28.94376 | 36042 ft | 433 kts | 324° |
| 2026-04-28 13:24 | 32.91181 | 28.90694 | 36038 ft | 433 kts | 324° |
| 2026-04-28 13:25 | 32.96358 | 28.87004 | 36051 ft | 434 kts | 324° |
| 2026-04-28 13:25 | 33.01540 | 28.83309 | 36035 ft | 434 kts | 324° |
| 2026-04-28 13:26 | 33.06723 | 28.79608 | 36027 ft | 434 kts | 324° |
| 2026-04-28 13:26 | 33.11905 | 28.75891 | 36026 ft | 435 kts | 324° |
| 2026-04-28 13:27 | 33.17054 | 28.72201 | 36027 ft | 435 kts | 324° |
| 2026-04-28 13:27 | 33.22247 | 28.68469 | 36031 ft | 436 kts | 324° |
| 2026-04-28 13:28 | 33.27446 | 28.64722 | 36044 ft | 437 kts | 324° |
| 2026-04-28 13:28 | 33.32660 | 28.60970 | 36039 ft | 437 kts | 324° |
| 2026-04-28 13:29 | 33.37880 | 28.57226 | 36033 ft | 438 kts | 325° |
| 2026-04-28 13:29 | 33.43100 | 28.53467 | 36036 ft | 438 kts | 324° |
| 2026-04-28 13:30 | 33.48319 | 28.49689 | 36035 ft | 438 kts | 324° |
| 2026-04-28 13:30 | 33.53541 | 28.45903 | 36049 ft | 439 kts | 325° |
| 2026-04-28 13:31 | 33.61368 | 28.40239 | 34840 ft | 438 kts | 326° |
| 2026-04-28 13:31 | 33.63978 | 28.38340 | 34314 ft | 440 kts | 326° |
| 2026-04-28 13:31 | 33.66606 | 28.36427 | 34116 ft | 443 kts | 326° |
| 2026-04-28 13:32 | 33.69247 | 28.34506 | 33971 ft | 445 kts | 326° |
| 2026-04-28 13:32 | 33.71900 | 28.32572 | 34022 ft | 446 kts | 326° |
| 2026-04-28 13:32 | 33.77208 | 28.28696 | 34014 ft | 447 kts | 326° |
| 2026-04-28 13:33 | 33.82534 | 28.24856 | 34013 ft | 447 kts | 327° |
| 2026-04-28 13:33 | 33.87928 | 28.21217 | 34013 ft | 447 kts | 329° |
| 2026-04-28 13:34 | 33.93385 | 28.17609 | 34009 ft | 447 kts | 328° |
| 2026-04-28 13:34 | 33.98815 | 28.13953 | 34012 ft | 447 kts | 328° |
| 2026-04-28 13:35 | 34.04228 | 28.10260 | 34007 ft | 447 kts | 328° |
| 2026-04-28 13:35 | 34.09641 | 28.06565 | 34019 ft | 447 kts | 328° |
| 2026-04-28 13:36 | 34.14884 | 28.02577 | 34007 ft | 445 kts | 324° |
| 2026-04-28 13:36 | 34.19987 | 27.98343 | 33999 ft | 445 kts | 323° |
| 2026-04-28 13:37 | 34.25084 | 27.94127 | 33999 ft | 436 kts | 324° |
| 2026-04-28 13:37 | 34.30031 | 27.90124 | 34008 ft | 424 kts | 324° |
| 2026-04-28 13:38 | 34.34933 | 27.86185 | 34009 ft | 422 kts | 324° |
| 2026-04-28 13:38 | 34.39793 | 27.82268 | 34009 ft | 422 kts | 324° |
| 2026-04-28 13:39 | 34.43879 | 27.78960 | 34009 ft | 422 kts | 324° |
| 2026-04-28 13:39 | 34.48762 | 27.75007 | 34003 ft | 422 kts | 324° |
| 2026-04-28 13:40 | 34.53641 | 27.71045 | 34000 ft | 422 kts | 324° |
| 2026-04-28 13:40 | 34.58514 | 27.67076 | 33995 ft | 422 kts | 324° |
| 2026-04-28 13:41 | 34.63382 | 27.63112 | 34002 ft | 421 kts | 324° |
| 2026-04-28 13:41 | 34.68251 | 27.59149 | 34003 ft | 421 kts | 324° |
| 2026-04-28 13:42 | 34.73121 | 27.55177 | 33998 ft | 421 kts | 324° |
| 2026-04-28 13:42 | 34.77984 | 27.51199 | 33995 ft | 422 kts | 324° |
| 2026-04-28 13:43 | 34.82850 | 27.47213 | 33988 ft | 422 kts | 324° |
| 2026-04-28 13:43 | 34.87720 | 27.43224 | 33995 ft | 421 kts | 324° |
| 2026-04-28 13:44 | 34.92581 | 27.39234 | 33996 ft | 421 kts | 324° |
| 2026-04-28 13:44 | 34.97428 | 27.35235 | 34001 ft | 421 kts | 324° |
| 2026-04-28 13:45 | 35.02276 | 27.31233 | 33998 ft | 421 kts | 324° |
| 2026-04-28 13:45 | 35.07095 | 27.27261 | 33996 ft | 421 kts | 324° |
| 2026-04-28 13:46 | 35.11943 | 27.23265 | 33999 ft | 421 kts | 324° |
| 2026-04-28 13:46 | 35.16788 | 27.19252 | 33995 ft | 420 kts | 324° |
| 2026-04-28 13:47 | 35.21628 | 27.15239 | 33977 ft | 420 kts | 324° |
| 2026-04-28 13:47 | 35.26464 | 27.11235 | 33977 ft | 420 kts | 324° |
| 2026-04-28 13:48 | 35.31296 | 27.07216 | 33975 ft | 420 kts | 324° |
| 2026-04-28 13:48 | 35.36116 | 27.03195 | 33973 ft | 419 kts | 324° |
| 2026-04-28 13:49 | 35.40941 | 26.99170 | 33975 ft | 419 kts | 324° |
| 2026-04-28 13:49 | 35.45767 | 26.95150 | 33981 ft | 419 kts | 324° |
| 2026-04-28 13:50 | 35.50593 | 26.91131 | 33993 ft | 419 kts | 324° |
| 2026-04-28 13:50 | 35.55406 | 26.87100 | 34000 ft | 419 kts | 324° |
| 2026-04-28 13:51 | 35.60219 | 26.83060 | 34012 ft | 418 kts | 324° |
| 2026-04-28 13:51 | 35.65014 | 26.79030 | 34019 ft | 417 kts | 324° |
| 2026-04-28 13:52 | 35.69797 | 26.75005 | 34018 ft | 416 kts | 324° |
| 2026-04-28 13:52 | 35.74577 | 26.70981 | 34019 ft | 417 kts | 324° |
| 2026-04-28 13:53 | 35.79362 | 26.66950 | 34025 ft | 417 kts | 323° |
| 2026-04-28 13:53 | 35.84143 | 26.62916 | 34021 ft | 416 kts | 323° |
| 2026-04-28 13:54 | 35.88884 | 26.58901 | 34026 ft | 416 kts | 323° |
| 2026-04-28 13:54 | 35.93662 | 26.54848 | 34021 ft | 416 kts | 323° |
| 2026-04-28 13:55 | 35.98432 | 26.50807 | 34021 ft | 416 kts | 323° |
| 2026-04-28 13:55 | 36.03203 | 26.46755 | 33850 ft | 416 kts | 323° |
| 2026-04-28 13:56 | 36.05591 | 26.44725 | 32926 ft | 417 kts | 323° |
| 2026-04-28 13:56 | 36.07991 | 26.42680 | 31938 ft | 421 kts | 323° |
| 2026-04-28 13:56 | 36.10412 | 26.40613 | 30942 ft | 424 kts | 323° |
| 2026-04-28 13:56 | 36.12850 | 26.38531 | 29941 ft | 427 kts | 323° |
| 2026-04-28 13:57 | 36.15289 | 26.36446 | 29097 ft | 424 kts | 323° |
| 2026-04-28 13:57 | 36.17705 | 26.34382 | 28332 ft | 419 kts | 323° |
| 2026-04-28 13:57 | 36.20096 | 26.32340 | 27604 ft | 415 kts | 323° |
| 2026-04-28 13:57 | 36.22461 | 26.30324 | 26900 ft | 411 kts | 323° |
| 2026-04-28 13:58 | 36.24803 | 26.28326 | 26223 ft | 407 kts | 323° |
| 2026-04-28 13:58 | 36.27124 | 26.26339 | 25559 ft | 403 kts | 323° |
| 2026-04-28 13:58 | 36.29421 | 26.24372 | 24939 ft | 399 kts | 323° |
| 2026-04-28 13:58 | 36.31687 | 26.22433 | 24473 ft | 391 kts | 323° |
| 2026-04-28 13:59 | 36.33882 | 26.20556 | 24356 ft | 375 kts | 323° |
| 2026-04-28 13:59 | 36.35970 | 26.18765 | 24250 ft | 361 kts | 323° |
| 2026-04-28 13:59 | 36.38000 | 26.17016 | 24024 ft | 351 kts | 323° |
| 2026-04-28 13:59 | 36.39985 | 26.15300 | 23631 ft | 346 kts | 323° |
| 2026-04-28 14:00 | 36.41954 | 26.13598 | 23123 ft | 343 kts | 323° |
| 2026-04-28 14:00 | 36.43909 | 26.11915 | 22623 ft | 341 kts | 323° |
| 2026-04-28 14:00 | 36.45857 | 26.10240 | 22127 ft | 339 kts | 323° |
| 2026-04-28 14:00 | 36.47788 | 26.08579 | 21642 ft | 337 kts | 323° |
| 2026-04-28 14:01 | 36.49706 | 26.06926 | 21174 ft | 335 kts | 323° |
| 2026-04-28 14:01 | 36.51616 | 26.05279 | 20697 ft | 333 kts | 323° |
| 2026-04-28 14:01 | 36.53515 | 26.03638 | 20239 ft | 332 kts | 323° |
| 2026-04-28 14:01 | 36.55408 | 26.02002 | 19792 ft | 330 kts | 323° |
| 2026-04-28 14:02 | 36.57289 | 26.00372 | 19351 ft | 329 kts | 323° |
| 2026-04-28 14:02 | 36.59162 | 25.98749 | 18940 ft | 327 kts | 323° |
| 2026-04-28 14:02 | 36.61025 | 25.97135 | 18533 ft | 325 kts | 323° |
| 2026-04-28 14:02 | 36.62882 | 25.95528 | 18102 ft | 324 kts | 323° |
| 2026-04-28 14:03 | 36.64723 | 25.93934 | 17686 ft | 321 kts | 324° |
| 2026-04-28 14:03 | 36.66524 | 25.92373 | 17257 ft | 319 kts | 324° |
| 2026-04-28 14:03 | 36.68337 | 25.90802 | 16875 ft | 315 kts | 324° |
| 2026-04-28 14:03 | 36.70139 | 25.89238 | 16395 ft | 316 kts | 324° |
| 2026-04-28 14:04 | 36.71958 | 25.87660 | 16027 ft | 313 kts | 323° |
| 2026-04-28 14:04 | 36.73717 | 25.86132 | 15626 ft | 311 kts | 324° |
| 2026-04-28 14:04 | 36.75497 | 25.84579 | 15180 ft | 312 kts | 324° |
| 2026-04-28 14:04 | 36.77272 | 25.83027 | 14774 ft | 311 kts | 324° |
| 2026-04-28 14:05 | 36.79041 | 25.81485 | 14447 ft | 308 kts | 323° |
| 2026-04-28 14:05 | 36.80787 | 25.79964 | 14121 ft | 305 kts | 324° |
| 2026-04-28 14:05 | 36.82530 | 25.78449 | 13708 ft | 305 kts | 324° |
| 2026-04-28 14:05 | 36.84262 | 25.76941 | 13363 ft | 301 kts | 323° |
| 2026-04-28 14:06 | 36.85967 | 25.75456 | 12999 ft | 298 kts | 323° |
| 2026-04-28 14:06 | 36.87662 | 25.73978 | 12561 ft | 297 kts | 323° |
| 2026-04-28 14:06 | 36.89347 | 25.72502 | 12138 ft | 297 kts | 324° |
| 2026-04-28 14:06 | 36.91035 | 25.71023 | 11771 ft | 294 kts | 324° |
| 2026-04-28 14:07 | 36.92696 | 25.69569 | 11390 ft | 291 kts | 324° |
| 2026-04-28 14:07 | 36.94354 | 25.68116 | 10988 ft | 290 kts | 324° |
| 2026-04-28 14:07 | 36.96008 | 25.66670 | 10542 ft | 290 kts | 324° |
| 2026-04-28 14:07 | 36.97662 | 25.65220 | 10137 ft | 289 kts | 324° |
| 2026-04-28 14:08 | 36.99290 | 25.63791 | 9909 ft | 281 kts | 325° |
| 2026-04-28 14:08 | 37.00869 | 25.62406 | 9613 ft | 275 kts | 326° |
| 2026-04-28 14:08 | 37.02418 | 25.61048 | 9291 ft | 270 kts | 326° |
| 2026-04-28 14:08 | 37.03936 | 25.59715 | 8993 ft | 264 kts | 326° |
| 2026-04-28 14:09 | 37.05428 | 25.58404 | 8609 ft | 261 kts | 327° |
| 2026-04-28 14:09 | 37.06919 | 25.57092 | 8141 ft | 262 kts | 326° |
| 2026-04-28 14:09 | 37.08415 | 25.55773 | 7693 ft | 262 kts | 327° |
| 2026-04-28 14:09 | 37.09891 | 25.54473 | 7329 ft | 258 kts | 327° |
| 2026-04-28 14:10 | 37.11361 | 25.53181 | 6865 ft | 259 kts | 326° |
| 2026-04-28 14:10 | 37.12832 | 25.51887 | 6425 ft | 258 kts | 327° |
| 2026-04-28 14:10 | 37.14299 | 25.50597 | 6036 ft | 256 kts | 327° |
| 2026-04-28 14:10 | 37.15749 | 25.49319 | 5555 ft | 257 kts | 327° |
| 2026-04-28 14:11 | 37.17212 | 25.48027 | 5104 ft | 257 kts | 328° |
| 2026-04-28 14:11 | 37.18674 | 25.46736 | 4650 ft | 256 kts | 328° |
| 2026-04-28 14:11 | 37.20155 | 25.45560 | 4204 ft | 244 kts | 338° |
| 2026-04-28 14:11 | 37.21706 | 25.44947 | 3898 ft | 223 kts | 353° |
| 2026-04-28 14:12 | 37.23190 | 25.44688 | 3849 ft | 207 kts | 354° |
| 2026-04-28 14:12 | 37.24538 | 25.44434 | 3791 ft | 190 kts | 350° |
| 2026-04-28 14:12 | 37.25761 | 25.43877 | 3704 ft | 181 kts | 334° |
| 2026-04-28 14:12 | 37.26741 | 25.42968 | 3662 ft | 169 kts | 324° |
| 2026-04-28 14:13 | 37.27585 | 25.42071 | 3553 ft | 148 kts | 331° |
| 2026-04-28 14:13 | 37.28418 | 25.41492 | 3499 ft | 128 kts | 342° |
| 2026-04-28 14:13 | 37.29238 | 25.41127 | 3289 ft | 123 kts | 345° |
| 2026-04-28 14:13 | 37.30049 | 25.40771 | 3091 ft | 124 kts | 345° |
| 2026-04-28 14:14 | 37.30858 | 25.40413 | 2908 ft | 124 kts | 344° |
| 2026-04-28 14:14 | 37.31665 | 25.40056 | 2740 ft | 123 kts | 345° |
| 2026-04-28 14:14 | 37.32469 | 25.39702 | 2545 ft | 122 kts | 344° |
| 2026-04-28 14:14 | 37.33270 | 25.39349 | 2380 ft | 121 kts | 344° |
| 2026-04-28 14:15 | 37.34064 | 25.38998 | 2208 ft | 121 kts | 344° |
| 2026-04-28 14:15 | 37.34851 | 25.38651 | 2037 ft | 120 kts | 345° |
| 2026-04-28 14:15 | 37.35637 | 25.38305 | 1877 ft | 119 kts | 345° |
| 2026-04-28 14:15 | 37.36420 | 25.37962 | 1716 ft | 119 kts | 344° |
| 2026-04-28 14:16 | 37.37204 | 25.37618 | 1549 ft | 119 kts | 344° |
| 2026-04-28 14:16 | 37.37986 | 25.37273 | 1393 ft | 119 kts | 343° |
| 2026-04-28 14:16 | 37.38766 | 25.36926 | 1236 ft | 119 kts | 343° |
| 2026-04-28 14:16 | 37.39546 | 25.36582 | 1079 ft | 119 kts | 343° |
| 2026-04-28 14:17 | 37.40325 | 25.36238 | 922 ft | 119 kts | 343° |
| 2026-04-28 14:17 | 37.41092 | 25.35884 | 831 ft | 120 kts | 343° |
| 2026-04-28 14:17 | 37.41890 | 25.35539 | 657 ft | 122 kts | 345° |
| 2026-04-28 14:17 | 37.42686 | 25.35192 | 450 ft | 118 kts | 343° |
| 2026-04-28 14:18 | 37.43353 | 25.34895 | 412 ft | 71 kts | 340° |
| 2026-04-28 14:18 | 37.43583 | 25.34791 | 411 ft | 19 kts | 341° |
| 2026-04-28 14:18 | 37.43659 | 25.34718 | 410 ft | 9 kts | 257° |
| 2026-04-28 14:18 | 37.43646 | 25.34697 | 406 ft | 0 kts | 224° |
| 2026-04-28 14:19 | 37.43637 | 25.34686 | 408 ft | 4 kts | 223° |
| 2026-04-28 14:19 | 37.43604 | 25.34670 | 408 ft | 6 kts | 180° |
| 2026-04-28 14:19 | 37.43567 | 25.34684 | 405 ft | 6 kts | 162° |
| 2026-04-28 14:19 | 37.43516 | 25.34707 | 406 ft | 9 kts | 160° |
| 2026-04-28 14:20 | 37.43459 | 25.34732 | 408 ft | 7 kts | 160° |
| 2026-04-28 14:20 | 37.43438 | 25.34716 | 407 ft | 3 kts | 248° |
| 2026-04-28 14:20 | 37.43433 | 25.34698 | 407 ft | 4 kts | 249° |
| 2026-04-28 14:20 | 37.43429 | 25.34685 | 407 ft | 0 kts | 250° |